createdAt,value
2023-09-02T00:02:21.388Z,100689.63
2023-09-02T00:04:49.746Z,100690.66
2023-09-02T00:07:17.830Z,100693.19
2023-09-02T00:09:45.938Z,100694.03
2023-09-02T00:12:14.481Z,100699.22
2023-09-02T00:14:42.832Z,100698.56
2023-09-02T00:17:12.433Z,100708.97
2023-09-02T00:19:41.635Z,100705.56
2023-09-02T00:22:09.978Z,100703.16
2023-09-02T00:24:38.058Z,100697.25
2023-09-02T00:27:06.946Z,100706.63
2023-09-02T00:29:35.027Z,100698.63
2023-09-02T00:32:02.767Z,100701.50
2023-09-02T00:34:31.377Z,100688.72
2023-09-02T00:37:01.398Z,100681.75
2023-09-02T00:39:29.726Z,100693.22
2023-09-02T00:41:59.167Z,100704.16
2023-09-02T00:44:28.444Z,100698.50
2023-09-02T00:46:59.560Z,100700.56
2023-09-02T00:49:28.013Z,100706.03
2023-09-02T00:51:56.025Z,100703.47
2023-09-02T00:54:24.165Z,100702.09
2023-09-02T00:56:53.274Z,100698.88
2023-09-02T00:59:22.429Z,100701.13
2023-09-02T01:01:51.070Z,100699.59
2023-09-02T01:04:19.562Z,100705.25
2023-09-02T01:06:50.579Z,100701.81
2023-09-02T01:09:18.676Z,100712.06
2023-09-02T01:11:46.939Z,100718.50
2023-09-02T01:14:16.005Z,100708.50
2023-09-02T01:16:43.646Z,100712.41
2023-09-02T01:19:14.661Z,100706.41
2023-09-02T01:22:14.772Z,100714.28
2023-09-02T01:25:13.674Z,100719.22
2023-09-02T01:27:46.025Z,100722.28
2023-09-02T01:30:18.508Z,100721.13
2023-09-02T01:32:50.683Z,100717.03
2023-09-02T01:35:23.615Z,100719.25
2023-09-02T01:37:57.536Z,100722.16
2023-09-02T01:40:26.942Z,100729.84
2023-09-02T01:42:57.736Z,100724.72
2023-09-02T01:45:32.390Z,100729.66
2023-09-02T01:48:01.061Z,100724.06
2023-09-02T01:50:33.666Z,100727.81
2023-09-02T01:53:02.083Z,100723.38
2023-09-02T01:55:30.529Z,100729.53
2023-09-02T01:57:59.541Z,100727.97
2023-09-02T02:00:27.672Z,100737.53
2023-09-02T02:02:56.261Z,100732.06
2023-09-02T02:05:35.140Z,100738.56
2023-09-02T02:08:08.603Z,100742.47
2023-09-02T02:10:37.783Z,100740.09
2023-09-02T02:13:07.955Z,100739.25
2023-09-02T02:15:35.955Z,100746.91
2023-09-02T02:18:04.277Z,100738.88
2023-09-02T02:20:56.686Z,100743.50
2023-09-02T02:23:24.908Z,100745.69
2023-09-02T02:25:53.003Z,100740.75
2023-09-02T02:28:20.975Z,100742.63
2023-09-02T02:30:49.190Z,100745.88
2023-09-02T02:33:17.412Z,100748.41
2023-09-02T02:35:45.664Z,100749.63
2023-09-02T02:38:13.805Z,100756.97
2023-09-02T02:40:42.097Z,100753.53
2023-09-02T02:43:10.594Z,100763.03
2023-09-02T02:45:38.482Z,100758.63
2023-09-02T02:48:16.930Z,100757.94
2023-09-02T02:50:45.155Z,100762.03
2023-09-02T02:53:13.621Z,100758.28
2023-09-02T02:55:43.304Z,100764.56
2023-09-02T02:58:13.704Z,100764.25
2023-09-02T03:00:41.952Z,100759.66
2023-09-02T03:03:11.507Z,100766.47
2023-09-02T03:05:44.015Z,100768.88
2023-09-02T03:08:11.933Z,100772.81
2023-09-02T03:10:40.179Z,100760.19
2023-09-02T03:13:08.122Z,100761.09
2023-09-02T03:15:36.173Z,100756.97
2023-09-02T03:18:04.537Z,100769.25
2023-09-02T03:20:34.118Z,100766.38
2023-09-02T03:23:06.928Z,100767.34
2023-09-02T03:25:36.078Z,100775.22
2023-09-02T03:28:04.046Z,100772.16
2023-09-02T03:30:32.466Z,100763.25
2023-09-02T03:33:01.380Z,100781.63
2023-09-02T03:35:29.576Z,100772.78
2023-09-02T03:37:57.777Z,100754.19
2023-09-02T03:40:25.903Z,100759.59
2023-09-02T03:42:54.766Z,100760.66
2023-09-02T03:45:23.320Z,100766.50
2023-09-02T03:47:51.623Z,100774.28
2023-09-02T03:50:27.898Z,100760.63
2023-09-02T03:52:55.779Z,100764.31
2023-09-02T03:55:23.330Z,100779.13
2023-09-02T03:57:51.047Z,100775.41
2023-09-02T04:00:19.838Z,100782.25
2023-09-02T04:02:48.243Z,100790.38
2023-09-02T04:05:16.248Z,100797.72
2023-09-02T04:07:44.662Z,100793.50
2023-09-02T04:10:12.807Z,100797.31
2023-09-02T04:12:40.820Z,100802.59
2023-09-02T04:15:10.171Z,100801.22
2023-09-02T04:17:38.204Z,100809.19
2023-09-02T04:20:06.830Z,100814.78
2023-09-02T04:22:34.972Z,100812.50
2023-09-02T04:25:02.401Z,100814.56
2023-09-02T04:27:30.486Z,100819.13
2023-09-02T04:29:59.075Z,100823.03
2023-09-02T04:32:27.444Z,100822.41
2023-09-02T04:34:55.940Z,100816.53
2023-09-02T04:37:23.783Z,100828.75
2023-09-02T04:39:52.951Z,100826.00
2023-09-02T04:44:52.037Z,100826.66
2023-09-02T04:47:20.585Z,100817.97
2023-09-02T04:49:48.899Z,100816.13
2023-09-02T04:52:17.184Z,100827.38
2023-09-02T04:54:46.679Z,100824.28
2023-09-02T04:57:15.391Z,100820.88
2023-09-02T04:59:44.473Z,100821.38
2023-09-02T05:02:12.579Z,100826.03
2023-09-02T05:04:40.846Z,100828.25
2023-09-02T05:07:09.398Z,100835.13
2023-09-02T05:09:37.559Z,100820.25
2023-09-02T05:12:06.043Z,100834.81
2023-09-02T05:14:34.222Z,100831.31
2023-09-02T05:17:02.137Z,100827.06
2023-09-02T05:19:29.857Z,100823.81
2023-09-02T05:21:58.833Z,100829.16
2023-09-02T05:24:26.900Z,100829.94
2023-09-02T05:26:54.920Z,100836.50
2023-09-02T05:29:22.789Z,100836.34
2023-09-02T05:31:50.968Z,100843.19
2023-09-02T05:34:19.282Z,100851.75
2023-09-02T05:36:50.098Z,100843.34
2023-09-02T05:39:18.501Z,100851.19
2023-09-02T05:41:47.064Z,100848.78
2023-09-02T05:44:15.109Z,100846.38
2023-09-02T05:46:43.709Z,100847.72
2023-09-02T05:49:13.249Z,100838.19
2023-09-02T05:51:41.802Z,100844.56
2023-09-02T05:54:10.950Z,100847.56
2023-09-02T05:56:39.041Z,100858.22
2023-09-02T05:59:07.367Z,100848.00
2023-09-02T06:01:35.502Z,100848.66
2023-09-02T06:04:04.073Z,100851.19
2023-09-02T06:06:33.935Z,100852.28
2023-09-02T06:09:02.323Z,100847.97
2023-09-02T06:11:32.502Z,100855.88
2023-09-02T06:14:00.129Z,100850.63
2023-09-02T06:19:13.068Z,100858.66
2023-09-02T06:21:41.132Z,100843.03
2023-09-02T06:24:09.174Z,100849.94
2023-09-02T06:26:37.079Z,100866.31
2023-09-02T06:29:05.357Z,100860.59
2023-09-02T06:31:34.577Z,100866.91
2023-09-02T06:34:07.374Z,100864.63
2023-09-02T06:36:38.013Z,100865.09
2023-09-02T06:39:08.844Z,100880.09
2023-09-02T06:41:36.826Z,100873.75
2023-09-02T06:44:05.218Z,100862.31
2023-09-02T06:46:35.333Z,100875.66
2023-09-02T06:49:06.831Z,100874.75
2023-09-02T06:51:35.201Z,100869.06
2023-09-02T06:54:03.194Z,100863.97
2023-09-02T06:56:31.456Z,100878.59
2023-09-02T06:58:59.504Z,100883.50
2023-09-02T07:01:28.311Z,100880.72
2023-09-02T07:03:58.216Z,100888.16
2023-09-02T07:06:26.503Z,100878.16
2023-09-02T07:08:54.917Z,100884.09
2023-09-02T07:11:22.996Z,100895.31
2023-09-02T07:13:50.927Z,100881.25
2023-09-02T07:16:19.045Z,100892.78
2023-09-02T07:18:47.145Z,100900.66
2023-09-02T07:21:15.752Z,100902.13
2023-09-02T07:23:46.718Z,100891.94
2023-09-02T07:26:14.780Z,100884.38
2023-09-02T07:28:44.065Z,100893.06
2023-09-02T07:31:11.936Z,100897.97
2023-09-02T07:33:40.746Z,100896.44
2023-09-02T07:36:13.247Z,100896.38
2023-09-02T07:38:44.696Z,100904.63
2023-09-02T07:41:13.033Z,100890.38
2023-09-02T07:43:41.383Z,100891.47
2023-09-02T07:46:24.211Z,100893.69
2023-09-02T07:48:52.675Z,100887.13
2023-09-02T07:51:20.619Z,100899.84
2023-09-02T07:53:48.602Z,100903.03
2023-09-02T07:56:16.733Z,100902.84
2023-09-02T07:58:48.189Z,100902.84
2023-09-02T08:01:17.411Z,100906.81
2023-09-02T08:03:45.713Z,100911.19
2023-09-02T08:06:13.882Z,100900.84
2023-09-02T08:08:41.609Z,100909.59
2023-09-02T08:11:09.658Z,100906.88
2023-09-02T08:13:37.646Z,100911.53
2023-09-02T08:16:06.908Z,100910.25
2023-09-02T08:18:35.769Z,100905.16
2023-09-02T08:21:12.338Z,100923.84
2023-09-02T08:23:40.785Z,100914.28
2023-09-02T08:26:14.658Z,100908.56
2023-09-02T08:28:43.277Z,100916.19
2023-09-02T08:31:13.303Z,100912.38
2023-09-02T08:33:41.648Z,100915.59
2023-09-02T08:36:19.734Z,100914.72
2023-09-02T08:38:48.994Z,100910.28
2023-09-02T08:41:32.409Z,100910.28
2023-09-02T08:44:28.827Z,100900.31
2023-09-02T08:46:57.828Z,100902.19
2023-09-02T08:49:26.291Z,100903.06
2023-09-02T08:51:54.643Z,100913.66
2023-09-02T08:54:23.655Z,100910.25
2023-09-02T08:56:55.882Z,100908.13
2023-09-02T08:59:24.113Z,100913.66
2023-09-02T09:01:52.380Z,100902.19
2023-09-02T09:04:20.856Z,100909.41
2023-09-02T09:06:49.162Z,100903.25
2023-09-02T09:09:18.426Z,100932.34
2023-09-02T09:11:46.663Z,100912.81
2023-09-02T09:14:24.769Z,100916.19
2023-09-02T09:16:55.542Z,100909.41
2023-09-02T09:19:24.848Z,100923.41
2023-09-02T09:21:53.395Z,100926.38
2023-09-02T09:24:21.821Z,100924.47
2023-09-02T09:26:50.942Z,100924.28
2023-09-02T09:29:22.620Z,100918.31
2023-09-02T09:31:50.912Z,100920.66
2023-09-02T09:34:19.330Z,100919.38
2023-09-02T09:36:58.280Z,100921.25
2023-09-02T09:39:42.754Z,100945.28
2023-09-02T09:42:15.645Z,100918.72
2023-09-02T09:45:07.260Z,100930.13
2023-09-02T09:47:37.933Z,100920.94
2023-09-02T09:50:14.582Z,100915.22
2023-09-02T09:52:59.777Z,100930.94
2023-09-02T09:55:28.405Z,100916.28
2023-09-02T09:57:57.554Z,100919.31
2023-09-02T10:00:27.265Z,100918.91
2023-09-02T10:03:03.949Z,100913.13
2023-09-02T10:05:42.607Z,100916.47
2023-09-02T10:08:12.168Z,100923.50
2023-09-02T10:10:41.803Z,100924.59
2023-09-02T10:13:10.265Z,100930.75
2023-09-02T10:15:38.418Z,100928.13
2023-09-02T10:18:06.638Z,100918.31
2023-09-02T10:20:36.844Z,100926.34
2023-09-02T10:23:12.679Z,100926.63
2023-09-02T10:26:01.864Z,100952.69
2023-09-02T10:28:39.028Z,100933.84
2023-09-02T10:31:23.695Z,100929.31
2023-09-02T10:34:06.457Z,100927.41
2023-09-02T10:36:35.250Z,100936.50
2023-09-02T10:39:05.582Z,100938.69
2023-09-02T10:41:34.163Z,100927.91
2023-09-02T10:44:02.878Z,100930.72
2023-09-02T10:46:31.188Z,100926.44
2023-09-02T10:49:00.689Z,100944.75
2023-09-02T10:51:30.439Z,100944.56
2023-09-02T10:53:59.501Z,100919.09
2023-09-02T10:56:35.160Z,100915.66
2023-09-02T10:59:07.556Z,100917.81
2023-09-02T11:01:46.402Z,100909.28
2023-09-02T11:04:15.138Z,100920.25
2023-09-02T11:07:26.327Z,100905.94
2023-09-02T11:09:56.196Z,100905.94
2023-09-02T11:12:26.713Z,100896.84
2023-09-02T11:15:09.666Z,100892.81
2023-09-02T11:17:39.755Z,100891.97
2023-09-02T11:20:10.129Z,100902.50
2023-09-02T11:23:06.588Z,100913.00
2023-09-02T11:25:44.219Z,100898.63
2023-09-02T11:28:21.532Z,100910.63
2023-09-02T11:31:06.434Z,100901.66
2023-09-02T11:33:36.200Z,100908.09
2023-09-02T11:36:08.313Z,100896.44
2023-09-02T11:38:36.566Z,100906.78
2023-09-02T11:41:04.626Z,100911.91
2023-09-02T11:43:34.195Z,100898.72
2023-09-02T11:46:04.388Z,100902.53
2023-09-02T11:48:32.657Z,100915.66
2023-09-02T11:51:00.997Z,100898.34
2023-09-02T11:53:30.515Z,100919.94
2023-09-02T11:55:59.038Z,100913.94
2023-09-02T11:58:27.563Z,100919.06
2023-09-02T12:00:55.856Z,100926.44
2023-09-02T12:03:26.700Z,100913.69
2023-09-02T12:05:56.942Z,100927.13
2023-09-02T12:08:25.495Z,100924.03
2023-09-02T12:10:54.975Z,100920.25
2023-09-02T12:13:23.656Z,100923.22
2023-09-02T12:15:53.171Z,100915.59
2023-09-02T12:18:22.538Z,100916.28
2023-09-02T12:20:51.877Z,100927.75
2023-09-02T12:23:20.571Z,100922.84
2023-09-02T12:26:11.435Z,100908.59
2023-09-02T12:28:50.135Z,100902.44
2023-09-02T12:31:18.963Z,100915.59
2023-09-02T12:33:55.636Z,100916.47
2023-09-02T12:36:33.912Z,100913.22
2023-09-02T12:39:01.664Z,100913.81
2023-09-02T12:41:43.075Z,100915.50
2023-09-02T12:44:16.740Z,100914.66
2023-09-02T12:46:45.081Z,100907.72
2023-09-02T12:49:14.997Z,100907.19
2023-09-02T12:51:44.556Z,100896.53
2023-09-02T12:54:15.116Z,100906.00
2023-09-02T12:56:43.410Z,100900.03
2023-09-02T12:59:11.787Z,100902.75
2023-09-02T13:01:41.020Z,100903.63
2023-09-02T13:04:09.097Z,100889.81
2023-09-02T13:06:37.201Z,100906.94
2023-09-02T13:09:07.162Z,100919.00
2023-09-02T13:11:35.428Z,100912.97
2023-09-02T13:14:03.333Z,100902.25
2023-09-02T13:16:31.203Z,100911.94
2023-09-02T13:18:59.435Z,100913.69
2023-09-02T13:21:27.756Z,100906.19
2023-09-02T13:23:55.869Z,100911.53
2023-09-02T13:26:25.983Z,100915.75
2023-09-02T13:28:54.761Z,100917.25
2023-09-02T13:31:24.188Z,100910.03
2023-09-02T13:33:52.346Z,100911.72
2023-09-02T13:36:20.349Z,100911.66
2023-09-02T13:39:00.680Z,100912.06
2023-09-02T13:41:28.805Z,100917.19
2023-09-02T13:43:57.298Z,100906.63
2023-09-02T13:46:25.511Z,100912.13
2023-09-02T13:48:53.323Z,100908.22
2023-09-02T13:51:23.771Z,100920.19
2023-09-02T13:53:53.788Z,100921.69
2023-09-02T13:56:22.310Z,100918.41
2023-09-02T13:58:52.673Z,100920.72
2023-09-02T14:01:20.763Z,100922.59
2023-09-02T14:03:50.329Z,100926.88
2023-09-02T14:06:18.796Z,100923.47
2023-09-02T14:08:48.563Z,100916.94
2023-09-02T14:11:19.081Z,100912.88
2023-09-02T14:13:50.471Z,100915.66
2023-09-02T14:16:18.815Z,100919.06
2023-09-02T14:18:48.839Z,100909.06
2023-09-02T14:21:17.282Z,100921.00
2023-09-02T14:23:45.746Z,100904.84
2023-09-02T14:26:17.068Z,100904.25
2023-09-02T14:28:46.921Z,100910.41
2023-09-02T14:31:15.550Z,100906.59
2023-09-02T14:33:46.468Z,100905.94
2023-09-02T14:36:39.345Z,100908.72
2023-09-02T14:39:07.459Z,100905.13
2023-09-02T14:41:36.072Z,100912.34
2023-09-02T14:44:04.581Z,100903.63
2023-09-02T14:46:35.980Z,100907.50
2023-09-02T14:49:04.669Z,100918.78
2023-09-02T14:51:33.270Z,100916.00
2023-09-02T14:54:06.010Z,100906.22
2023-09-02T14:56:44.496Z,100904.94
2023-09-02T14:59:14.551Z,100913.22
2023-09-02T15:01:44.380Z,100915.34
2023-09-02T15:04:12.515Z,100912.34
2023-09-02T15:06:42.357Z,100904.31
2023-09-02T15:09:11.957Z,100911.53
2023-09-02T15:11:41.905Z,100909.81
2023-09-02T15:14:11.036Z,100910.28
2023-09-02T15:16:40.006Z,100919.16
2023-09-02T15:19:12.813Z,100909.63
2023-09-02T15:21:40.707Z,100917.03
2023-09-02T15:24:09.630Z,100912.81
2023-09-02T15:26:40.167Z,100923.19
2023-09-02T15:29:14.411Z,100910.41
2023-09-02T15:31:47.411Z,100914.84
2023-09-02T15:34:17.861Z,100916.34
2023-09-02T15:36:49.536Z,100920.75
2023-09-02T15:39:25.905Z,100914.41
2023-09-02T15:41:57.791Z,100921.78
2023-09-02T15:44:25.950Z,100921.97
2023-09-02T15:46:54.901Z,100932.94
2023-09-02T15:49:25.985Z,100927.00
2023-09-02T15:51:54.871Z,100927.63
2023-09-02T15:54:23.109Z,100928.81
2023-09-02T15:56:51.056Z,100931.75
2023-09-02T15:59:19.330Z,100937.22
2023-09-02T16:01:47.631Z,100941.84
2023-09-02T16:04:17.052Z,100943.25
2023-09-02T16:06:46.356Z,100952.94
2023-09-02T16:09:14.650Z,100941.22
2023-09-02T16:11:42.821Z,100951.53
2023-09-02T16:14:10.952Z,100943.19
2023-09-02T16:16:38.906Z,100953.69
2023-09-02T16:19:07.744Z,100963.56
2023-09-02T16:21:36.817Z,100956.97
2023-09-02T16:24:05.955Z,100958.16
2023-09-02T16:26:34.461Z,100956.66
2023-09-02T16:29:02.734Z,100959.53
2023-09-02T16:31:30.912Z,100954.25
2023-09-02T16:33:59.270Z,100957.78
2023-09-02T16:36:27.662Z,100972.50
2023-09-02T16:38:56.833Z,100967.41
2023-09-02T16:41:25.728Z,100968.44
2023-09-02T16:44:04.573Z,100967.97
2023-09-02T16:46:34.089Z,100973.78
2023-09-02T16:49:02.360Z,100967.34
2023-09-02T16:51:31.319Z,100967.94
2023-09-02T16:54:02.282Z,100975.31
2023-09-02T16:56:31.984Z,100977.97
2023-09-02T16:59:00.974Z,100976.19
2023-09-02T17:01:29.477Z,100982.38
2023-09-02T17:03:58.019Z,100985.78
2023-09-02T17:06:33.949Z,100985.03
2023-09-02T17:09:03.849Z,100993.72
2023-09-02T17:11:32.241Z,100993.97
2023-09-02T17:14:00.585Z,100992.66
2023-09-02T17:16:28.977Z,100992.09
2023-09-02T17:18:57.263Z,101007.94
2023-09-02T17:21:26.156Z,100994.34
2023-09-02T17:23:54.428Z,101003.97
2023-09-02T17:26:25.231Z,100998.38
2023-09-02T17:28:53.715Z,101001.47
2023-09-02T17:31:24.000Z,101010.81
2023-09-02T17:33:52.201Z,100998.50
2023-09-02T17:36:20.587Z,101001.97
2023-09-02T17:38:48.884Z,100999.94
2023-09-02T17:41:17.617Z,100997.75
2023-09-02T17:43:45.429Z,101003.13
2023-09-02T17:46:14.503Z,100997.50
2023-09-02T17:48:43.165Z,100998.72
2023-09-02T17:51:11.890Z,101005.13
2023-09-02T17:53:40.369Z,101005.13
2023-09-02T17:56:08.219Z,101013.16
2023-09-02T17:58:36.243Z,101011.75
2023-09-02T18:01:04.481Z,101016.94
2023-09-02T18:03:33.174Z,101017.78
2023-09-02T18:06:01.508Z,101022.97
2023-09-02T18:08:46.739Z,101021.22
2023-09-02T18:11:18.440Z,101015.25
2023-09-02T18:13:47.077Z,101017.16
2023-09-02T18:16:15.432Z,101023.00
2023-09-02T18:18:45.658Z,101021.28
2023-09-02T18:21:14.077Z,101016.28
2023-09-02T18:23:42.397Z,101024.66
2023-09-02T18:26:10.832Z,101022.88
2023-09-02T18:28:39.812Z,101022.22
2023-09-02T18:31:08.261Z,101018.63
2023-09-02T18:33:36.427Z,101020.88
2023-09-02T18:36:04.618Z,101026.91
2023-09-02T18:38:32.870Z,101024.72
2023-09-02T18:41:01.009Z,101023.31
2023-09-02T18:43:29.582Z,101018.81
2023-09-02T18:46:03.960Z,101028.38
2023-09-02T18:48:32.697Z,101028.44
2023-09-02T18:51:00.696Z,101021.44
2023-09-02T18:53:28.754Z,101028.09
2023-09-02T18:55:56.854Z,101022.50
2023-09-02T18:58:25.652Z,101028.06
2023-09-02T19:00:53.929Z,101030.34
2023-09-02T19:03:22.481Z,101029.88
2023-09-02T19:05:51.871Z,101023.44
2023-09-02T19:08:20.311Z,101016.41
2023-09-02T19:10:48.983Z,101020.94
2023-09-02T19:13:17.670Z,101025.19
2023-09-02T19:15:45.952Z,101021.78
2023-09-02T19:18:14.447Z,101022.97
2023-09-02T19:20:43.281Z,101011.19
2023-09-02T19:23:11.633Z,101019.03
2023-09-02T19:25:40.224Z,101020.22
2023-09-02T19:28:08.808Z,101021.88
2023-09-02T19:30:37.088Z,101024.56
2023-09-02T19:33:05.343Z,101026.09
2023-09-02T19:35:33.740Z,101031.88
2023-09-02T19:38:03.172Z,101031.22
2023-09-02T19:40:31.970Z,101033.91
2023-09-02T19:43:00.607Z,101031.19
2023-09-02T19:45:29.442Z,101037.50
2023-09-02T19:47:57.493Z,101028.78
2023-09-02T19:50:25.945Z,101029.09
2023-09-02T19:52:54.224Z,101034.75
2023-09-02T19:55:22.645Z,101020.38
2023-09-02T19:57:50.846Z,101025.47
2023-09-02T20:00:19.725Z,101032.81
2023-09-02T20:02:50.558Z,101030.94
2023-09-02T20:05:18.745Z,101030.66
2023-09-02T20:07:47.406Z,101029.63
2023-09-02T20:10:18.429Z,101038.16
2023-09-02T20:12:47.630Z,101041.97
2023-09-02T20:15:17.077Z,101035.69
2023-09-02T20:17:46.409Z,101032.50
2023-09-02T20:20:14.763Z,101032.00
2023-09-02T20:22:43.354Z,101033.38
2023-09-02T20:25:11.998Z,101032.16
2023-09-02T20:27:40.146Z,101027.56
2023-09-02T20:30:08.628Z,101029.81
2023-09-02T20:32:37.216Z,101028.09
2023-09-02T20:35:06.030Z,101039.03
2023-09-02T20:37:34.357Z,101028.28
2023-09-02T20:40:02.830Z,101017.50
2023-09-02T20:42:31.305Z,101020.59
2023-09-02T20:44:59.397Z,101023.34
2023-09-02T20:47:27.571Z,101028.09
2023-09-02T20:49:55.838Z,101017.88
2023-09-02T20:52:24.498Z,101010.34
2023-09-02T20:54:56.408Z,101015.47
2023-09-02T20:57:24.661Z,101016.50
2023-09-02T20:59:57.628Z,101019.38
2023-09-02T21:02:28.047Z,101014.25
2023-09-02T21:04:58.601Z,101011.38
2023-09-02T21:07:26.582Z,101015.28
2023-09-02T21:09:56.970Z,101021.78
2023-09-02T21:12:29.380Z,101013.91
2023-09-02T21:14:59.292Z,101013.91
2023-09-02T21:17:27.600Z,101019.91
2023-09-02T21:19:56.045Z,101016.50
2023-09-02T21:22:24.207Z,101019.25
2023-09-02T21:24:52.652Z,101023.34
2023-09-02T21:27:20.827Z,101027.06
2023-09-02T21:29:53.547Z,101029.47
2023-09-02T21:32:21.255Z,101020.94
2023-09-02T21:34:49.654Z,101022.63
2023-09-02T21:37:17.839Z,101034.25
2023-09-02T21:39:46.008Z,101035.09
2023-09-02T21:42:14.652Z,101030.66
2023-09-02T21:44:43.192Z,101030.47
2023-09-02T21:47:11.726Z,101025.00
2023-09-02T21:49:39.912Z,101040.84
2023-09-02T21:52:08.490Z,101033.34
2023-09-02T21:54:36.834Z,101038.56
2023-09-02T21:57:05.362Z,101036.53
2023-09-02T21:59:33.715Z,101037.88
2023-09-02T22:02:01.831Z,101032.56
2023-09-02T22:04:33.057Z,101038.66
2023-09-02T22:07:01.661Z,101035.75
2023-09-02T22:09:30.261Z,101038.28
2023-09-02T22:11:58.210Z,101037.44
2023-09-02T22:14:26.718Z,101036.41
2023-09-02T22:16:55.453Z,101044.56
2023-09-02T22:19:23.506Z,101035.84
2023-09-02T22:21:52.389Z,101042.81
2023-09-02T22:24:20.135Z,101037.88
2023-09-02T22:26:48.437Z,101042.31
2023-09-02T22:29:16.712Z,101034.31
2023-09-02T22:31:45.018Z,101036.50
2023-09-02T22:34:13.377Z,101034.63
2023-09-02T22:36:41.671Z,101038.88
2023-09-02T22:39:12.418Z,101036.59
2023-09-02T22:41:43.842Z,101041.25
2023-09-02T22:44:12.594Z,101040.34
2023-09-02T22:46:41.181Z,101035.06
2023-09-02T22:49:23.410Z,101039.28
2023-09-02T22:52:19.345Z,101032.59
2023-09-02T22:54:47.429Z,101036.28
2023-09-02T22:57:15.873Z,101027.00
2023-09-02T22:59:44.212Z,101034.81
2023-09-02T23:02:12.788Z,101033.91
2023-09-02T23:04:41.839Z,101038.13
2023-09-02T23:07:10.525Z,101036.38
2023-09-02T23:09:44.651Z,101036.72
2023-09-02T23:12:12.909Z,101036.66
2023-09-02T23:14:40.749Z,101039.97
2023-09-02T23:17:09.307Z,101042.31
2023-09-02T23:19:37.702Z,101037.03
2023-09-02T23:22:06.698Z,101031.59
2023-09-02T23:24:34.878Z,101024.88
2023-09-02T23:27:02.791Z,101029.59
2023-09-02T23:29:31.155Z,101035.06
2023-09-02T23:31:59.581Z,101031.47
2023-09-02T23:34:28.134Z,101031.34
2023-09-02T23:36:55.717Z,101041.66
2023-09-02T23:39:24.376Z,101032.75
2023-09-02T23:41:52.149Z,101032.28
2023-09-02T23:44:20.141Z,101032.91
2023-09-02T23:46:47.827Z,101041.16
2023-09-02T23:49:17.591Z,101040.13
2023-09-02T23:51:46.025Z,101030.88
2023-09-02T23:54:14.694Z,101031.13
2023-09-02T23:56:43.289Z,101040.63
2023-09-02T23:59:11.829Z,101044.66
